sensor_id;sensor_type;location;lat;lon;timestamp;temperature;humidity
75466;HTU21D;64049;46.290;44.240;2023-08-06T01:44:27;24.77;38.03
75466;HTU21D;64049;46.290;44.240;2023-08-06T01:46:54;24.74;37.82
75466;HTU21D;64049;46.290;44.240;2023-08-06T01:49:20;24.71;37.77
75466;HTU21D;64049;46.290;44.240;2023-08-06T01:51:46;24.62;37.99
75466;HTU21D;64049;46.290;44.240;2023-08-06T01:54:12;24.54;38.06
75466;HTU21D;64049;46.290;44.240;2023-08-06T01:56:38;24.45;38.11
75466;HTU21D;64049;46.290;44.240;2023-08-06T01:59:04;24.39;38.20
75466;HTU21D;64049;46.290;44.240;2023-08-06T02:01:29;24.34;38.37
75466;HTU21D;64049;46.290;44.240;2023-08-06T02:03:55;24.30;38.58
75466;HTU21D;64049;46.290;44.240;2023-08-06T02:06:21;24.24;38.77
75466;HTU21D;64049;46.290;44.240;2023-08-06T02:08:47;24.17;38.88
75466;HTU21D;64049;46.290;44.240;2023-08-06T02:11:14;24.15;39.04
75466;HTU21D;64049;46.290;44.240;2023-08-06T02:13:40;24.20;38.99
75466;HTU21D;64049;46.290;44.240;2023-08-06T02:16:07;24.26;39.30
75466;HTU21D;64049;46.290;44.240;2023-08-06T02:18:36;24.31;39.46
75466;HTU21D;64049;46.290;44.240;2023-08-06T02:21:02;24.30;39.85
75466;HTU21D;64049;46.290;44.240;2023-08-06T02:23:28;24.30;39.86
75466;HTU21D;64049;46.290;44.240;2023-08-06T02:26:01;24.31;40.04
75466;HTU21D;64049;46.290;44.240;2023-08-06T02:28:28;24.35;40.17
75466;HTU21D;64049;46.290;44.240;2023-08-06T02:30:54;24.35;40.30
75466;HTU21D;64049;46.290;44.240;2023-08-06T02:33:20;24.33;40.52
75466;HTU21D;64049;46.290;44.240;2023-08-06T02:35:47;24.33;40.51
75466;HTU21D;64049;46.290;44.240;2023-08-06T02:38:13;24.42;40.47
75466;HTU21D;64049;46.290;44.240;2023-08-06T02:40:46;24.54;40.35
75466;HTU21D;64049;46.290;44.240;2023-08-06T02:43:13;24.61;40.24
75466;HTU21D;64049;46.290;44.240;2023-08-06T02:45:39;24.66;40.27
75466;HTU21D;64049;46.290;44.240;2023-08-06T02:48:05;24.72;40.37
75466;HTU21D;64049;46.290;44.240;2023-08-06T02:50:37;24.77;40.36
75466;HTU21D;64049;46.290;44.240;2023-08-06T02:53:05;24.82;40.36
75466;HTU21D;64049;46.290;44.240;2023-08-06T02:55:31;24.91;40.39
75466;HTU21D;64049;46.290;44.240;2023-08-06T02:57:57;24.98;40.45
75466;HTU21D;64049;46.290;44.240;2023-08-06T03:00:23;25.02;40.55
75466;HTU21D;64049;46.290;44.240;2023-08-06T03:02:51;25.06;40.42
75466;HTU21D;64049;46.290;44.240;2023-08-06T03:05:52;25.13;40.56
75466;HTU21D;64049;46.290;44.240;2023-08-06T03:08:21;25.18;40.61
75466;HTU21D;64049;46.290;44.240;2023-08-06T03:10:50;25.24;40.63
75466;HTU21D;64049;46.290;44.240;2023-08-06T03:13:19;25.31;40.58
75466;HTU21D;64049;46.290;44.240;2023-08-06T03:15:55;25.39;40.53
75466;HTU21D;64049;46.290;44.240;2023-08-06T03:18:21;25.47;40.33
75466;HTU21D;64049;46.290;44.240;2023-08-06T03:20:49;25.57;40.23
75466;HTU21D;64049;46.290;44.240;2023-08-06T03:23:16;25.73;39.86
75466;HTU21D;64049;46.290;44.240;2023-08-06T03:25:42;25.80;40.04
75466;HTU21D;64049;46.290;44.240;2023-08-06T03:28:08;25.90;39.91
75466;HTU21D;64049;46.290;44.240;2023-08-06T03:30:35;25.97;39.79
75466;HTU21D;64049;46.290;44.240;2023-08-06T03:33:02;26.06;39.78
75466;HTU21D;64049;46.290;44.240;2023-08-06T03:35:28;26.13;39.70
75466;HTU21D;64049;46.290;44.240;2023-08-06T03:37:54;26.23;39.56
75466;HTU21D;64049;46.290;44.240;2023-08-06T03:40:21;26.32;39.45
75466;HTU21D;64049;46.290;44.240;2023-08-06T03:42:47;26.45;39.27
75466;HTU21D;64049;46.290;44.240;2023-08-06T03:45:13;26.56;39.39
75466;HTU21D;64049;46.290;44.240;2023-08-06T03:47:40;26.64;39.36
75466;HTU21D;64049;46.290;44.240;2023-08-06T03:50:07;26.71;39.38
75466;HTU21D;64049;46.290;44.240;2023-08-06T03:52:33;26.83;39.30
75466;HTU21D;64049;46.290;44.240;2023-08-06T03:54:59;27.02;39.19
75466;HTU21D;64049;46.290;44.240;2023-08-06T03:57:25;27.15;39.00
75466;HTU21D;64049;46.290;44.240;2023-08-06T03:59:51;27.27;38.83
75466;HTU21D;64049;46.290;44.240;2023-08-06T04:02:17;27.40;38.73
75466;HTU21D;64049;46.290;44.240;2023-08-06T04:04:43;27.58;38.43
75466;HTU21D;64049;46.290;44.240;2023-08-06T04:07:09;27.72;38.33
75466;HTU21D;64049;46.290;44.240;2023-08-06T04:09:52;27.86;38.01
75466;HTU21D;64049;46.290;44.240;2023-08-06T04:12:18;28.03;37.48
75466;HTU21D;64049;46.290;44.240;2023-08-06T04:14:48;28.23;37.17
75466;HTU21D;64049;46.290;44.240;2023-08-06T04:17:13;28.35;37.01
75466;HTU21D;64049;46.290;44.240;2023-08-06T04:19:39;28.47;37.17
75466;HTU21D;64049;46.290;44.240;2023-08-06T04:22:06;28.63;36.83
75466;HTU21D;64049;46.290;44.240;2023-08-06T04:24:33;28.80;36.63
75466;HTU21D;64049;46.290;44.240;2023-08-06T04:27:00;29.02;36.31
75466;HTU21D;64049;46.290;44.240;2023-08-06T04:29:27;29.21;36.07
75466;HTU21D;64049;46.290;44.240;2023-08-06T04:31:53;29.35;35.78
75466;HTU21D;64049;46.290;44.240;2023-08-06T04:34:21;29.47;35.28
75466;HTU21D;64049;46.290;44.240;2023-08-06T04:36:48;29.61;35.19
75466;HTU21D;64049;46.290;44.240;2023-08-06T04:39:14;29.77;34.50
75466;HTU21D;64049;46.290;44.240;2023-08-06T04:41:40;29.91;34.21
75466;HTU21D;64049;46.290;44.240;2023-08-06T04:44:07;30.08;34.26
75466;HTU21D;64049;46.290;44.240;2023-08-06T04:46:33;30.25;34.21
75466;HTU21D;64049;46.290;44.240;2023-08-06T04:48:59;30.38;34.00
75466;HTU21D;64049;46.290;44.240;2023-08-06T04:51:25;30.50;33.22
75466;HTU21D;64049;46.290;44.240;2023-08-06T04:53:50;30.60;32.65
75466;HTU21D;64049;46.290;44.240;2023-08-06T04:56:16;30.72;32.41
75466;HTU21D;64049;46.290;44.240;2023-08-06T04:58:42;30.86;32.35
75466;HTU21D;64049;46.290;44.240;2023-08-06T05:01:08;31.00;32.31
75466;HTU21D;64049;46.290;44.240;2023-08-06T05:03:35;31.18;32.32
75466;HTU21D;64049;46.290;44.240;2023-08-06T05:06:01;31.31;32.47
75466;HTU21D;64049;46.290;44.240;2023-08-06T05:08:27;31.43;32.28
75466;HTU21D;64049;46.290;44.240;2023-08-06T05:10:52;31.53;32.27
75466;HTU21D;64049;46.290;44.240;2023-08-06T05:13:18;31.66;32.12
75466;HTU21D;64049;46.290;44.240;2023-08-06T05:15:44;31.78;31.90
75466;HTU21D;64049;46.290;44.240;2023-08-06T05:18:12;31.89;31.48
75466;HTU21D;64049;46.290;44.240;2023-08-06T05:20:41;32.03;31.38
75466;HTU21D;64049;46.290;44.240;2023-08-06T05:23:08;32.17;31.07
75466;HTU21D;64049;46.290;44.240;2023-08-06T05:25:37;32.32;30.67
75466;HTU21D;64049;46.290;44.240;2023-08-06T05:28:04;32.47;30.58
75466;HTU21D;64049;46.290;44.240;2023-08-06T05:30:30;32.60;30.11
75466;HTU21D;64049;46.290;44.240;2023-08-06T05:32:56;32.73;29.80
75466;HTU21D;64049;46.290;44.240;2023-08-06T05:35:23;32.86;29.85
75466;HTU21D;64049;46.290;44.240;2023-08-06T05:37:51;32.99;29.18
75466;HTU21D;64049;46.290;44.240;2023-08-06T05:40:16;33.08;28.97
75466;HTU21D;64049;46.290;44.240;2023-08-06T05:42:42;33.22;28.45
75466;HTU21D;64049;46.290;44.240;2023-08-06T05:45:09;33.40;27.80
75466;HTU21D;64049;46.290;44.240;2023-08-06T05:47:35;33.53;27.34
75466;HTU21D;64049;46.290;44.240;2023-08-06T05:50:01;33.74;27.13
75466;HTU21D;64049;46.290;44.240;2023-08-06T05:52:27;33.87;26.60
75466;HTU21D;64049;46.290;44.240;2023-08-06T05:54:53;33.97;26.40
75466;HTU21D;64049;46.290;44.240;2023-08-06T05:57:20;34.15;26.03
75466;HTU21D;64049;46.290;44.240;2023-08-06T05:59:46;34.29;25.71
75466;HTU21D;64049;46.290;44.240;2023-08-06T06:02:12;34.45;25.29
75466;HTU21D;64049;46.290;44.240;2023-08-06T06:04:38;34.65;24.93
75466;HTU21D;64049;46.290;44.240;2023-08-06T06:07:04;34.79;24.69
75466;HTU21D;64049;46.290;44.240;2023-08-06T06:09:30;34.88;24.13
75466;HTU21D;64049;46.290;44.240;2023-08-06T06:11:55;34.95;23.81
75466;HTU21D;64049;46.290;44.240;2023-08-06T06:14:22;35.07;23.56
75466;HTU21D;64049;46.290;44.240;2023-08-06T06:16:48;35.23;23.53
75466;HTU21D;64049;46.290;44.240;2023-08-06T06:19:14;35.40;23.27
75466;HTU21D;64049;46.290;44.240;2023-08-06T06:21:40;35.51;23.01
75466;HTU21D;64049;46.290;44.240;2023-08-06T06:24:07;35.64;22.85
75466;HTU21D;64049;46.290;44.240;2023-08-06T06:26:33;35.81;22.23
75466;HTU21D;64049;46.290;44.240;2023-08-06T06:28:59;35.94;21.84
75466;HTU21D;64049;46.290;44.240;2023-08-06T06:31:25;36.03;21.75
75466;HTU21D;64049;46.290;44.240;2023-08-06T06:33:52;36.14;21.60
75466;HTU21D;64049;46.290;44.240;2023-08-06T06:36:20;36.30;21.73
75466;HTU21D;64049;46.290;44.240;2023-08-06T06:38:46;36.43;21.37
75466;HTU21D;64049;46.290;44.240;2023-08-06T06:41:13;36.55;20.92
75466;HTU21D;64049;46.290;44.240;2023-08-06T06:43:39;36.70;21.08
75466;HTU21D;64049;46.290;44.240;2023-08-06T06:46:06;36.85;20.67
75466;HTU21D;64049;46.290;44.240;2023-08-06T06:48:33;36.89;20.31
75466;HTU21D;64049;46.290;44.240;2023-08-06T06:50:59;36.90;20.50
75466;HTU21D;64049;46.290;44.240;2023-08-06T06:53:26;37.05;20.19
75466;HTU21D;64049;46.290;44.240;2023-08-06T06:56:02;37.28;19.66
75466;HTU21D;64049;46.290;44.240;2023-08-06T06:58:29;37.46;19.38
75466;HTU21D;64049;46.290;44.240;2023-08-06T07:00:55;37.55;19.15
75466;HTU21D;64049;46.290;44.240;2023-08-06T07:03:22;37.56;19.37
75466;HTU21D;64049;46.290;44.240;2023-08-06T07:05:48;37.66;19.20
75466;HTU21D;64049;46.290;44.240;2023-08-06T07:08:15;37.69;19.39
75466;HTU21D;64049;46.290;44.240;2023-08-06T07:10:41;37.78;19.31
75466;HTU21D;64049;46.290;44.240;2023-08-06T07:13:08;37.88;18.54
75466;HTU21D;64049;46.290;44.240;2023-08-06T07:15:35;37.96;18.41
75466;HTU21D;64049;46.290;44.240;2023-08-06T07:18:01;38.01;17.88
75466;HTU21D;64049;46.290;44.240;2023-08-06T07:20:27;38.01;17.86
75466;HTU21D;64049;46.290;44.240;2023-08-06T07:22:59;38.09;17.63
75466;HTU21D;64049;46.290;44.240;2023-08-06T07:25:26;38.26;17.45
75466;HTU21D;64049;46.290;44.240;2023-08-06T07:27:51;38.37;17.46
75466;HTU21D;64049;46.290;44.240;2023-08-06T07:30:17;38.51;17.23
75466;HTU21D;64049;46.290;44.240;2023-08-06T07:32:44;38.63;17.58
75466;HTU21D;64049;46.290;44.240;2023-08-06T07:35:10;38.71;17.13
75466;HTU21D;64049;46.290;44.240;2023-08-06T07:37:39;38.85;16.85
75466;HTU21D;64049;46.290;44.240;2023-08-06T07:40:05;38.99;16.42
75466;HTU21D;64049;46.290;44.240;2023-08-06T07:42:31;39.07;16.28
75466;HTU21D;64049;46.290;44.240;2023-08-06T07:44:58;39.15;16.10
75466;HTU21D;64049;46.290;44.240;2023-08-06T07:47:24;39.24;16.03
75466;HTU21D;64049;46.290;44.240;2023-08-06T07:49:50;39.33;16.06
75466;HTU21D;64049;46.290;44.240;2023-08-06T07:52:16;39.32;16.48
75466;HTU21D;64049;46.290;44.240;2023-08-06T07:54:42;39.29;15.94
75466;HTU21D;64049;46.290;44.240;2023-08-06T07:57:11;39.23;15.97
75466;HTU21D;64049;46.290;44.240;2023-08-06T07:59:37;39.21;16.42
75466;HTU21D;64049;46.290;44.240;2023-08-06T08:02:03;39.37;16.10
75466;HTU21D;64049;46.290;44.240;2023-08-06T08:04:31;39.51;16.27
75466;HTU21D;64049;46.290;44.240;2023-08-06T08:07:00;39.58;15.58
75466;HTU21D;64049;46.290;44.240;2023-08-06T08:09:42;39.72;15.32
75466;HTU21D;64049;46.290;44.240;2023-08-06T08:12:08;39.83;15.79
75466;HTU21D;64049;46.290;44.240;2023-08-06T08:14:34;40.00;15.92
75466;HTU21D;64049;46.290;44.240;2023-08-06T08:17:03;40.10;15.24
75466;HTU21D;64049;46.290;44.240;2023-08-06T08:19:29;40.17;15.13
75466;HTU21D;64049;46.290;44.240;2023-08-06T08:21:55;40.31;15.03
75466;HTU21D;64049;46.290;44.240;2023-08-06T08:24:22;40.37;14.95
75466;HTU21D;64049;46.290;44.240;2023-08-06T08:26:50;40.35;14.70
75466;HTU21D;64049;46.290;44.240;2023-08-06T08:29:16;40.42;14.84
75466;HTU21D;64049;46.290;44.240;2023-08-06T08:31:42;40.47;15.35
75466;HTU21D;64049;46.290;44.240;2023-08-06T08:34:09;40.55;15.17
75466;HTU21D;64049;46.290;44.240;2023-08-06T08:36:35;40.59;15.31
75466;HTU21D;64049;46.290;44.240;2023-08-06T08:39:01;40.67;14.94
75466;HTU21D;64049;46.290;44.240;2023-08-06T08:41:31;40.75;14.32
75466;HTU21D;64049;46.290;44.240;2023-08-06T08:43:58;40.73;14.42
75466;HTU21D;64049;46.290;44.240;2023-08-06T08:46:27;40.68;14.25
75466;HTU21D;64049;46.290;44.240;2023-08-06T08:48:55;40.71;13.74
75466;HTU21D;64049;46.290;44.240;2023-08-06T08:51:23;40.73;14.12
75466;HTU21D;64049;46.290;44.240;2023-08-06T08:53:49;40.66;14.32
75466;HTU21D;64049;46.290;44.240;2023-08-06T08:56:19;40.73;14.19
75466;HTU21D;64049;46.290;44.240;2023-08-06T08:58:45;40.72;14.17
75466;HTU21D;64049;46.290;44.240;2023-08-06T09:01:11;40.77;14.48
75466;HTU21D;64049;46.290;44.240;2023-08-06T09:03:39;40.76;14.11
75466;HTU21D;64049;46.290;44.240;2023-08-06T09:06:05;40.84;14.54
75466;HTU21D;64049;46.290;44.240;2023-08-06T09:08:36;41.00;14.16
75466;HTU21D;64049;46.290;44.240;2023-08-06T09:11:04;41.09;13.89
75466;HTU21D;64049;46.290;44.240;2023-08-06T09:13:30;41.19;13.55
75466;HTU21D;64049;46.290;44.240;2023-08-06T09:15:56;41.32;13.39
75466;HTU21D;64049;46.290;44.240;2023-08-06T09:18:26;41.41;13.41
75466;HTU21D;64049;46.290;44.240;2023-08-06T09:20:55;41.51;13.71
75466;HTU21D;64049;46.290;44.240;2023-08-06T09:23:32;41.58;13.94
75466;HTU21D;64049;46.290;44.240;2023-08-06T09:25:59;41.64;13.55
75466;HTU21D;64049;46.290;44.240;2023-08-06T09:28:36;41.73;13.19
75466;HTU21D;64049;46.290;44.240;2023-08-06T09:31:04;41.85;13.01
75466;HTU21D;64049;46.290;44.240;2023-08-06T09:33:31;41.83;13.41
75466;HTU21D;64049;46.290;44.240;2023-08-06T09:35:56;41.75;13.47
75466;HTU21D;64049;46.290;44.240;2023-08-06T09:38:22;41.77;13.35
75466;HTU21D;64049;46.290;44.240;2023-08-06T09:40:48;41.77;13.03
75466;HTU21D;64049;46.290;44.240;2023-08-06T09:43:14;41.71;13.13
75466;HTU21D;64049;46.290;44.240;2023-08-06T09:45:40;41.64;13.08
75466;HTU21D;64049;46.290;44.240;2023-08-06T09:48:08;41.73;12.72
75466;HTU21D;64049;46.290;44.240;2023-08-06T09:50:37;41.76;13.08
75466;HTU21D;64049;46.290;44.240;2023-08-06T09:53:07;41.81;12.71
75466;HTU21D;64049;46.290;44.240;2023-08-06T09:55:34;41.85;12.59
75466;HTU21D;64049;46.290;44.240;2023-08-06T09:58:00;41.90;12.48
75466;HTU21D;64049;46.290;44.240;2023-08-06T10:00:26;41.87;12.67
75466;HTU21D;64049;46.290;44.240;2023-08-06T10:02:54;41.75;13.03
75466;HTU21D;64049;46.290;44.240;2023-08-06T10:05:22;41.81;13.09
75466;HTU21D;64049;46.290;44.240;2023-08-06T10:07:49;41.90;12.29
75466;HTU21D;64049;46.290;44.240;2023-08-06T10:10:19;41.92;12.08
75466;HTU21D;64049;46.290;44.240;2023-08-06T10:12:52;41.94;12.10
75466;HTU21D;64049;46.290;44.240;2023-08-06T10:15:24;42.01;12.36
75466;HTU21D;64049;46.290;44.240;2023-08-06T10:17:53;41.87;12.20
75466;HTU21D;64049;46.290;44.240;2023-08-06T10:20:20;41.75;12.15
75466;HTU21D;64049;46.290;44.240;2023-08-06T10:23:06;41.77;12.45
75466;HTU21D;64049;46.290;44.240;2023-08-06T10:25:34;41.71;12.25
75466;HTU21D;64049;46.290;44.240;2023-08-06T10:28:07;41.65;12.51
75466;HTU21D;64049;46.290;44.240;2023-08-06T10:30:41;41.64;12.49
75466;HTU21D;64049;46.290;44.240;2023-08-06T10:33:10;41.65;12.94
75466;HTU21D;64049;46.290;44.240;2023-08-06T10:35:44;41.72;12.59
75466;HTU21D;64049;46.290;44.240;2023-08-06T10:38:15;41.85;12.98
75466;HTU21D;64049;46.290;44.240;2023-08-06T10:41:02;41.94;12.94
75466;HTU21D;64049;46.290;44.240;2023-08-06T10:43:35;42.03;12.33
75466;HTU21D;64049;46.290;44.240;2023-08-06T10:46:09;42.15;12.17
75466;HTU21D;64049;46.290;44.240;2023-08-06T10:48:44;42.21;11.95
75466;HTU21D;64049;46.290;44.240;2023-08-06T10:51:12;42.31;11.49
75466;HTU21D;64049;46.290;44.240;2023-08-06T10:53:42;42.40;11.37
75466;HTU21D;64049;46.290;44.240;2023-08-06T10:56:22;42.48;11.26
75466;HTU21D;64049;46.290;44.240;2023-08-06T10:58:49;42.31;11.74
75466;HTU21D;64049;46.290;44.240;2023-08-06T11:01:16;42.32;11.14
75466;HTU21D;64049;46.290;44.240;2023-08-06T11:03:46;42.37;10.80
75466;HTU21D;64049;46.290;44.240;2023-08-06T11:06:18;42.35;11.00
75466;HTU21D;64049;46.290;44.240;2023-08-06T11:08:54;42.34;11.13
75466;HTU21D;64049;46.290;44.240;2023-08-06T11:11:21;42.33;11.84
75466;HTU21D;64049;46.290;44.240;2023-08-06T11:13:49;42.32;11.45
75466;HTU21D;64049;46.290;44.240;2023-08-06T11:16:19;42.31;11.19
75466;HTU21D;64049;46.290;44.240;2023-08-06T11:18:46;42.39;11.18
75466;HTU21D;64049;46.290;44.240;2023-08-06T11:21:13;42.54;10.83
75466;HTU21D;64049;46.290;44.240;2023-08-06T11:23:39;42.67;10.70
75466;HTU21D;64049;46.290;44.240;2023-08-06T11:26:06;42.79;10.28
75466;HTU21D;64049;46.290;44.240;2023-08-06T11:28:31;42.97;10.39
75466;HTU21D;64049;46.290;44.240;2023-08-06T11:30:58;43.00;10.04
75466;HTU21D;64049;46.290;44.240;2023-08-06T11:33:28;43.02;10.13
75466;HTU21D;64049;46.290;44.240;2023-08-06T11:35:55;43.00;10.28
75466;HTU21D;64049;46.290;44.240;2023-08-06T11:38:30;43.09;10.34
75466;HTU21D;64049;46.290;44.240;2023-08-06T11:40:56;43.04;10.40
75466;HTU21D;64049;46.290;44.240;2023-08-06T11:43:22;42.94;10.75
75466;HTU21D;64049;46.290;44.240;2023-08-06T11:45:52;42.84;10.80
75466;HTU21D;64049;46.290;44.240;2023-08-06T11:48:20;42.78;11.03
75466;HTU21D;64049;46.290;44.240;2023-08-06T11:50:46;42.67;11.26
75466;HTU21D;64049;46.290;44.240;2023-08-06T11:53:13;42.80;11.20
75466;HTU21D;64049;46.290;44.240;2023-08-06T11:55:40;43.07;10.85
75466;HTU21D;64049;46.290;44.240;2023-08-06T11:58:06;43.23;10.64
75466;HTU21D;64049;46.290;44.240;2023-08-06T12:00:32;43.49;10.41
75466;HTU21D;64049;46.290;44.240;2023-08-06T12:02:58;43.83;9.96
75466;HTU21D;64049;46.290;44.240;2023-08-06T12:05:33;44.51;9.27
75466;HTU21D;64049;46.290;44.240;2023-08-06T12:08:01;45.35;8.65
75466;HTU21D;64049;46.290;44.240;2023-08-06T12:10:29;46.10;8.26
75466;HTU21D;64049;46.290;44.240;2023-08-06T12:12:55;47.04;7.66
75466;HTU21D;64049;46.290;44.240;2023-08-06T12:15:23;47.43;7.18
75466;HTU21D;64049;46.290;44.240;2023-08-06T12:17:49;47.82;6.99
75466;HTU21D;64049;46.290;44.240;2023-08-06T12:20:15;48.23;6.83
75466;HTU21D;64049;46.290;44.240;2023-08-06T12:22:41;48.58;6.08
75466;HTU21D;64049;46.290;44.240;2023-08-06T12:25:08;49.08;5.69
75466;HTU21D;64049;46.290;44.240;2023-08-06T12:27:36;49.59;5.47
75466;HTU21D;64049;46.290;44.240;2023-08-06T12:30:03;49.91;5.11
75466;HTU21D;64049;46.290;44.240;2023-08-06T12:32:30;49.84;4.78
75466;HTU21D;64049;46.290;44.240;2023-08-06T12:34:57;49.69;4.64
75466;HTU21D;64049;46.290;44.240;2023-08-06T12:37:24;49.86;4.60
75466;HTU21D;64049;46.290;44.240;2023-08-06T12:39:50;50.20;4.26
75466;HTU21D;64049;46.290;44.240;2023-08-06T12:42:16;50.34;4.61
75466;HTU21D;64049;46.290;44.240;2023-08-06T12:44:42;50.28;4.64
75466;HTU21D;64049;46.290;44.240;2023-08-06T12:47:08;50.73;4.86
75466;HTU21D;64049;46.290;44.240;2023-08-06T12:49:34;51.06;4.06
75466;HTU21D;64049;46.290;44.240;2023-08-06T12:52:00;51.26;3.69
75466;HTU21D;64049;46.290;44.240;2023-08-06T12:54:26;51.41;4.25
75466;HTU21D;64049;46.290;44.240;2023-08-06T12:56:52;51.45;3.80
75466;HTU21D;64049;46.290;44.240;2023-08-06T12:59:18;51.42;3.65
75466;HTU21D;64049;46.290;44.240;2023-08-06T13:01:45;51.68;3.31
75466;HTU21D;64049;46.290;44.240;2023-08-06T13:04:13;51.62;2.94
75466;HTU21D;64049;46.290;44.240;2023-08-06T13:06:39;51.75;2.90
75466;HTU21D;64049;46.290;44.240;2023-08-06T13:09:06;51.60;3.00
75466;HTU21D;64049;46.290;44.240;2023-08-06T13:11:34;51.89;2.93
75466;HTU21D;64049;46.290;44.240;2023-08-06T13:14:31;51.86;2.77
75466;HTU21D;64049;46.290;44.240;2023-08-06T13:16:57;52.11;2.95
75466;HTU21D;64049;46.290;44.240;2023-08-06T13:19:22;52.39;2.61
75466;HTU21D;64049;46.290;44.240;2023-08-06T13:24:19;52.80;2.31
75466;HTU21D;64049;46.290;44.240;2023-08-06T13:26:45;52.63;2.08
75466;HTU21D;64049;46.290;44.240;2023-08-06T13:29:17;52.44;2.15
75466;HTU21D;64049;46.290;44.240;2023-08-06T13:31:43;52.59;1.95
75466;HTU21D;64049;46.290;44.240;2023-08-06T13:34:09;52.56;2.09
75466;HTU21D;64049;46.290;44.240;2023-08-06T13:36:35;52.57;2.08
75466;HTU21D;64049;46.290;44.240;2023-08-06T13:39:01;52.36;2.02
75466;HTU21D;64049;46.290;44.240;2023-08-06T13:41:37;52.25;2.13
75466;HTU21D;64049;46.290;44.240;2023-08-06T13:44:10;52.29;2.11
75466;HTU21D;64049;46.290;44.240;2023-08-06T13:46:36;52.52;1.91
75466;HTU21D;64049;46.290;44.240;2023-08-06T13:49:02;52.58;2.13
75466;HTU21D;64049;46.290;44.240;2023-08-06T13:51:28;52.43;2.04
75466;HTU21D;64049;46.290;44.240;2023-08-06T13:53:55;52.07;2.10
75466;HTU21D;64049;46.290;44.240;2023-08-06T13:56:23;51.82;2.55
75466;HTU21D;64049;46.290;44.240;2023-08-06T13:58:49;51.68;2.38
75466;HTU21D;64049;46.290;44.240;2023-08-06T14:01:17;51.07;2.38
75466;HTU21D;64049;46.290;44.240;2023-08-06T14:03:44;50.68;2.65
75466;HTU21D;64049;46.290;44.240;2023-08-06T14:06:10;50.38;2.85
75466;HTU21D;64049;46.290;44.240;2023-08-06T14:08:36;49.87;3.11
75466;HTU21D;64049;46.290;44.240;2023-08-06T14:11:02;49.40;3.33
75466;HTU21D;64049;46.290;44.240;2023-08-06T14:14:05;48.52;4.13
75466;HTU21D;64049;46.290;44.240;2023-08-06T14:16:31;47.45;4.80
75466;HTU21D;64049;46.290;44.240;2023-08-06T14:18:57;47.20;4.80
75466;HTU21D;64049;46.290;44.240;2023-08-06T14:21:23;46.92;5.05
75466;HTU21D;64049;46.290;44.240;2023-08-06T14:26:36;46.02;5.82
75466;HTU21D;64049;46.290;44.240;2023-08-06T14:29:02;45.50;6.10
75466;HTU21D;64049;46.290;44.240;2023-08-06T14:31:28;45.26;6.37
75466;HTU21D;64049;46.290;44.240;2023-08-06T14:34:04;45.11;6.24
75466;HTU21D;64049;46.290;44.240;2023-08-06T14:36:30;45.00;6.36
75466;HTU21D;64049;46.290;44.240;2023-08-06T14:38:56;44.60;6.76
75466;HTU21D;64049;46.290;44.240;2023-08-06T14:41:22;44.07;7.18
75466;HTU21D;64049;46.290;44.240;2023-08-06T14:43:48;43.76;7.41
75466;HTU21D;64049;46.290;44.240;2023-08-06T14:46:14;43.34;7.54
75466;HTU21D;64049;46.290;44.240;2023-08-06T14:48:39;42.95;7.76
75466;HTU21D;64049;46.290;44.240;2023-08-06T14:51:05;42.67;7.92
75466;HTU21D;64049;46.290;44.240;2023-08-06T14:53:31;42.37;8.07
75466;HTU21D;64049;46.290;44.240;2023-08-06T14:55:57;42.24;8.12
75466;HTU21D;64049;46.290;44.240;2023-08-06T14:58:23;41.90;8.49
75466;HTU21D;64049;46.290;44.240;2023-08-06T15:00:49;41.50;8.66
75466;HTU21D;64049;46.290;44.240;2023-08-06T15:03:16;41.26;8.82
75466;HTU21D;64049;46.290;44.240;2023-08-06T15:05:47;41.02;9.11
75466;HTU21D;64049;46.290;44.240;2023-08-06T15:08:13;40.75;9.30
75466;HTU21D;64049;46.290;44.240;2023-08-06T15:10:39;40.48;9.61
75466;HTU21D;64049;46.290;44.240;2023-08-06T15:13:05;40.29;9.48
75466;HTU21D;64049;46.290;44.240;2023-08-06T15:15:32;40.02;9.65
75466;HTU21D;64049;46.290;44.240;2023-08-06T15:17:57;39.80;9.84
75466;HTU21D;64049;46.290;44.240;2023-08-06T15:20:24;39.53;10.08
75466;HTU21D;64049;46.290;44.240;2023-08-06T15:22:50;39.36;10.66
75466;HTU21D;64049;46.290;44.240;2023-08-06T15:25:15;39.17;10.46
75466;HTU21D;64049;46.290;44.240;2023-08-06T15:27:41;38.95;10.82
75466;HTU21D;64049;46.290;44.240;2023-08-06T15:30:08;38.82;10.94
75466;HTU21D;64049;46.290;44.240;2023-08-06T15:32:34;38.74;11.04
75466;HTU21D;64049;46.290;44.240;2023-08-06T15:34:59;38.73;11.20
75466;HTU21D;64049;46.290;44.240;2023-08-06T15:37:25;38.55;11.17
75466;HTU21D;64049;46.290;44.240;2023-08-06T15:39:52;38.33;11.41
75466;HTU21D;64049;46.290;44.240;2023-08-06T15:42:18;38.10;11.59
75466;HTU21D;64049;46.290;44.240;2023-08-06T15:44:44;37.87;11.73
75466;HTU21D;64049;46.290;44.240;2023-08-06T15:47:10;37.63;12.03
75466;HTU21D;64049;46.290;44.240;2023-08-06T15:49:38;37.35;12.48
75466;HTU21D;64049;46.290;44.240;2023-08-06T15:52:04;37.14;12.78
75466;HTU21D;64049;46.290;44.240;2023-08-06T15:54:30;36.91;13.07
75466;HTU21D;64049;46.290;44.240;2023-08-06T15:56:56;36.72;13.31
75466;HTU21D;64049;46.290;44.240;2023-08-06T15:59:23;36.52;13.45
75466;HTU21D;64049;46.290;44.240;2023-08-06T16:01:49;36.30;13.74
75466;HTU21D;64049;46.290;44.240;2023-08-06T16:04:21;35.98;14.03
75466;HTU21D;64049;46.290;44.240;2023-08-06T16:06:47;35.70;14.39
75466;HTU21D;64049;46.290;44.240;2023-08-06T16:09:13;35.44;14.65
75466;HTU21D;64049;46.290;44.240;2023-08-06T16:11:39;35.21;15.01
75466;HTU21D;64049;46.290;44.240;2023-08-06T16:14:06;34.99;15.45
75466;HTU21D;64049;46.290;44.240;2023-08-06T16:16:31;34.78;15.71
75466;HTU21D;64049;46.290;44.240;2023-08-06T16:18:59;34.54;16.05
75466;HTU21D;64049;46.290;44.240;2023-08-06T16:21:25;34.35;16.34
75466;HTU21D;64049;46.290;44.240;2023-08-06T16:23:51;34.17;16.46
75466;HTU21D;64049;46.290;44.240;2023-08-06T16:26:17;33.97;16.70
75466;HTU21D;64049;46.290;44.240;2023-08-06T16:28:43;33.79;16.93
75466;HTU21D;64049;46.290;44.240;2023-08-06T16:31:09;33.63;17.12
75466;HTU21D;64049;46.290;44.240;2023-08-06T16:33:36;33.45;17.20
75466;HTU21D;64049;46.290;44.240;2023-08-06T16:36:05;33.29;17.53
75466;HTU21D;64049;46.290;44.240;2023-08-06T16:38:31;33.08;17.74
75466;HTU21D;64049;46.290;44.240;2023-08-06T16:40:57;32.92;18.02
75466;HTU21D;64049;46.290;44.240;2023-08-06T16:43:23;32.77;18.37
75466;HTU21D;64049;46.290;44.240;2023-08-06T16:45:52;32.61;18.67
75466;HTU21D;64049;46.290;44.240;2023-08-06T16:48:18;32.46;18.69
75466;HTU21D;64049;46.290;44.240;2023-08-06T16:50:46;32.31;18.97
75466;HTU21D;64049;46.290;44.240;2023-08-06T16:53:12;32.18;19.11
75466;HTU21D;64049;46.290;44.240;2023-08-06T16:55:37;32.03;19.40